Time;durP1;ratioP1;P1;durP2;ratioP2;P2;SDS_P1;SDS_P2;PMS_P1;PMS_P2;Temp;Humidity;BMP_temperature;BMP_pressure;BME280_temperature;BME280_humidity;BME280_pressure;Samples;Min_cycle;Max_cycle;Signal;HPM_P1;HPM_P2
2022/08/23 00:02:26;;;;;;;;;;;;;;;23.51;60.61;99050.38;4472898;32;34379;-64
2022/08/23 00:04:54;;;;;;;;;;;;;;;23.80;59.58;99051.75;4481159;32;35366;-64
2022/08/23 00:07:36;;;;;;;;;;;;;;;24.01;58.72;99056.06;4479135;31;32996;-64
2022/08/23 00:10:06;;;;;;;;;;;;;;;23.90;59.06;99049.41;4472690;32;34735;-64
2022/08/23 00:12:34;;;;;;;;;;;;;;;23.80;59.26;99047.13;4483209;32;34276;-63
2022/08/23 00:15:01;;;;;;;;;;;;;;;23.90;59.06;99044.78;4484372;32;34029;-64
2022/08/23 00:17:29;;;;;;;;;;;;;;;23.90;59.21;99039.31;4479689;31;32106;-63
2022/08/23 00:20:05;;;;;;;;;;;;;;;23.92;59.23;99039.94;4469055;32;34987;-64
2022/08/23 00:22:33;;;;;;;;;;;;;;;23.35;61.00;99041.59;4478949;32;34132;-63
2022/08/23 00:25:00;;;;;;;;;;;;;;;23.66;60.12;99042.75;4476889;32;35150;-63
2022/08/23 00:27:27;;;;;;;;;;;;;;;23.91;59.20;99035.50;4479178;31;34173;-62
2022/08/23 00:29:56;;;;;;;;;;;;;;;23.71;59.63;99034.78;4481615;32;34316;-63
2022/08/23 00:32:27;;;;;;;;;;;;;;;23.70;59.98;99039.41;4467514;32;34229;-63
2022/08/23 00:34:55;;;;;;;;;;;;;;;23.88;59.47;99040.56;4480990;32;33893;-63
2022/08/23 00:37:22;;;;;;;;;;;;;;;23.90;59.32;99044.78;4480069;32;33224;-62
2022/08/23 00:39:50;;;;;;;;;;;;;;;24.00;58.96;99046.19;4468498;32;34412;-63
2022/08/23 00:48:11;;;;;;;;;;;;;;;23.77;59.88;99049.47;4478884;32;33358;-63
2022/08/23 00:51:08;;;;;;;;;;;;;;;23.90;59.30;99057.59;4476183;32;32898;-63
2022/08/23 00:53:39;;;;;;;;;;;;;;;23.31;61.21;99062.19;4471128;31;35228;-63
2022/08/23 00:56:07;;;;;;;;;;;;;;;23.55;60.20;99051.62;4484452;32;33843;-62
2022/08/23 00:58:35;;;;;;;;;;;;;;;23.74;59.77;99061.66;4474599;32;33524;-62
2022/08/23 01:01:03;;;;;;;;;;;;;;;23.53;60.43;99056.44;4484336;32;34320;-62
2022/08/23 01:03:31;;;;;;;;;;;;;;;23.65;59.97;99063.75;4470582;32;33907;-62
2022/08/23 01:06:17;;;;;;;;;;;;;;;23.48;60.51;99068.84;4480219;32;32723;-63
2022/08/23 01:08:46;;;;;;;;;;;;;;;23.48;60.57;99066.13;4479493;31;32412;-63
2022/08/23 01:11:16;;;;;;;;;;;;;;;23.69;59.93;99070.50;4484640;32;33989;-63
2022/08/23 01:13:44;;;;;;;;;;;;;;;23.65;60.09;99062.91;4480044;32;37108;-63
2022/08/23 01:16:18;;;;;;;;;;;;;;;23.53;60.76;99072.84;4479274;32;32580;-63
2022/08/23 01:18:46;;;;;;;;;;;;;;;23.37;61.42;99068.66;4477694;32;33900;-63
2022/08/23 01:21:15;;;;;;;;;;;;;;;23.53;61.05;99070.09;4482519;32;35564;-63
2022/08/23 01:23:48;;;;;;;;;;;;;;;23.70;60.45;99074.91;4475253;32;32927;-64
2022/08/23 01:26:16;;;;;;;;;;;;;;;23.44;60.88;99074.97;4478275;32;34182;-63
2022/08/23 01:28:50;;;;;;;;;;;;;;;23.56;60.53;99069.66;4482301;31;32278;-64
2022/08/23 01:31:17;;;;;;;;;;;;;;;23.32;61.49;99076.69;4484023;32;33747;-63
2022/08/23 01:33:46;;;;;;;;;;;;;;;23.31;61.68;99077.75;4474962;32;33192;-63
2022/08/23 01:36:14;;;;;;;;;;;;;;;23.43;61.24;99082.31;4482151;32;32886;-63
2022/08/23 01:38:42;;;;;;;;;;;;;;;23.51;60.82;99088.63;4475242;32;33271;-63
2022/08/23 01:41:10;;;;;;;;;;;;;;;23.54;60.71;99093.66;4476284;32;32407;-62
2022/08/23 01:43:37;;;;;;;;;;;;;;;23.54;60.59;99094.47;4482160;32;32866;-63
2022/08/23 01:46:12;;;;;;;;;;;;;;;23.34;61.46;99089.06;4481848;32;34333;-63
2022/08/23 01:48:40;;;;;;;;;;;;;;;23.16;62.37;99080.69;4480372;31;33361;-63
2022/08/23 01:51:08;;;;;;;;;;;;;;;23.51;61.42;99091.34;4483888;31;34164;-64
2022/08/23 01:53:35;;;;;;;;;;;;;;;23.69;60.83;99084.19;4481948;31;33048;-63
2022/08/23 01:56:03;;;;;;;;;;;;;;;23.61;60.96;99097.19;4483582;32;34310;-62
2022/08/23 01:58:31;;;;;;;;;;;;;;;23.65;60.80;99091.06;4478067;32;34275;-63
2022/08/23 02:01:00;;;;;;;;;;;;;;;23.61;61.00;99099.94;4481265;31;34878;-62
2022/08/23 02:03:28;;;;;;;;;;;;;;;23.63;60.90;99086.91;4483053;32;32918;-62
2022/08/23 02:05:56;;;;;;;;;;;;;;;23.82;59.80;99085.16;4477776;32;34078;-63
2022/08/23 02:11:11;;;;;;;;;;;;;;;23.75;60.51;99093.37;4482599;32;34098;-63
2022/08/23 02:13:39;;;;;;;;;;;;;;;23.54;61.12;99096.38;4480351;32;33993;-62
2022/08/23 02:16:06;;;;;;;;;;;;;;;23.37;61.69;99098.72;4480504;32;33923;-62
2022/08/23 02:18:34;;;;;;;;;;;;;;;23.74;60.53;99099.06;4480948;32;32175;-62
2022/08/23 02:21:01;;;;;;;;;;;;;;;23.83;60.14;99095.88;4483083;32;32397;-63
2022/08/23 02:23:29;;;;;;;;;;;;;;;23.83;60.34;99093.16;4472978;32;33022;-62
2022/08/23 02:25:56;;;;;;;;;;;;;;;23.81;60.28;99095.25;4481783;32;33650;-62
2022/08/23 02:28:24;;;;;;;;;;;;;;;23.90;60.00;99102.16;4479599;32;33196;-62
2022/08/23 02:30:52;;;;;;;;;;;;;;;23.91;59.90;99105.72;4476229;32;32875;-61
2022/08/23 02:33:20;;;;;;;;;;;;;;;23.79;60.48;99107.44;4478423;32;32913;-61
2022/08/23 02:35:48;;;;;;;;;;;;;;;23.83;60.22;99112.28;4482907;32;34287;-63
2022/08/23 02:38:17;;;;;;;;;;;;;;;24.01;59.45;99105.25;4477746;32;34347;-63
2022/08/23 02:40:44;;;;;;;;;;;;;;;23.76;60.40;99102.44;4475101;31;34812;-64
2022/08/23 02:43:12;;;;;;;;;;;;;;;23.80;60.30;99117.34;4470863;32;33065;-63
2022/08/23 02:45:40;;;;;;;;;;;;;;;23.80;60.11;99109.16;4470905;32;35103;-63
2022/08/23 02:48:07;;;;;;;;;;;;;;;23.86;60.07;99116.47;4483835;32;33876;-64
2022/08/23 02:50:36;;;;;;;;;;;;;;;23.65;60.83;99120.28;4482864;32;34023;-63
2022/08/23 02:53:03;;;;;;;;;;;;;;;23.70;60.93;99126.81;4480156;32;34334;-63
2022/08/23 02:55:31;;;;;;;;;;;;;;;23.86;60.44;99119.22;4468964;32;32876;-63
2022/08/23 02:57:58;;;;;;;;;;;;;;;23.73;60.59;99124.72;4483443;32;34370;-63
2022/08/23 03:00:25;;;;;;;;;;;;;;;23.91;59.91;99128.41;4479626;32;33471;-64
2022/08/23 03:02:53;;;;;;;;;;;;;;;23.92;59.78;99124.66;4483142;32;35728;-64
2022/08/23 03:05:21;;;;;;;;;;;;;;;23.85;60.25;99137.50;4482790;32;34540;-63
2022/08/23 03:07:48;;;;;;;;;;;;;;;23.85;60.37;99133.91;4479950;32;33456;-63
2022/08/23 03:10:15;;;;;;;;;;;;;;;23.97;59.97;99134.09;4480548;32;34149;-63
2022/08/23 03:12:43;;;;;;;;;;;;;;;23.94;59.96;99138.91;4481860;32;34144;-63
2022/08/23 03:15:11;;;;;;;;;;;;;;;23.97;59.77;99132.19;4480366;32;33814;-63
2022/08/23 03:17:38;;;;;;;;;;;;;;;23.98;59.97;99144.81;4470173;32;34228;-62
2022/08/23 03:20:07;;;;;;;;;;;;;;;24.04;59.64;99137.63;4478608;32;34857;-62
2022/08/23 03:22:36;;;;;;;;;;;;;;;24.02;59.55;99137.03;4482797;32;33059;-63
2022/08/23 03:25:04;;;;;;;;;;;;;;;23.94;60.02;99147.13;4483307;32;35468;-63
2022/08/23 03:27:33;;;;;;;;;;;;;;;23.97;59.94;99150.50;4483766;32;34529;-63
2022/08/23 03:30:11;;;;;;;;;;;;;;;24.01;59.96;99143.53;4478686;31;33237;-63
2022/08/23 03:32:47;;;;;;;;;;;;;;;23.68;61.07;99153.50;4482971;32;33957;-63
2022/08/23 03:35:16;;;;;;;;;;;;;;;23.69;60.99;99154.34;4482127;32;34153;-62
2022/08/23 03:37:43;;;;;;;;;;;;;;;23.58;61.47;99161.28;4472905;32;32514;-63
2022/08/23 03:40:12;;;;;;;;;;;;;;;23.91;60.44;99166.69;4479857;32;35323;-62
2022/08/23 03:42:40;;;;;;;;;;;;;;;24.04;60.06;99164.97;4473826;32;34845;-62
2022/08/23 03:45:07;;;;;;;;;;;;;;;24.02;60.01;99165.19;4477791;32;35186;-63
2022/08/23 03:47:35;;;;;;;;;;;;;;;24.08;59.59;99153.41;4483594;32;33369;-62
2022/08/23 03:50:02;;;;;;;;;;;;;;;23.81;60.63;99162.72;4479084;32;32308;-63
2022/08/23 03:52:31;;;;;;;;;;;;;;;23.99;60.21;99164.78;4484323;32;35285;-63
2022/08/23 03:54:59;;;;;;;;;;;;;;;23.85;60.74;99175.75;4482805;32;33829;-62
2022/08/23 03:57:27;;;;;;;;;;;;;;;23.96;60.16;99165.22;4481504;32;34349;-63
2022/08/23 03:59:55;;;;;;;;;;;;;;;23.99;60.14;99170.25;4479500;32;35375;-63
2022/08/23 04:02:23;;;;;;;;;;;;;;;23.90;60.41;99173.22;4476340;32;34856;-63
2022/08/23 04:04:50;;;;;;;;;;;;;;;23.85;60.56;99167.56;4478889;32;34055;-63
2022/08/23 04:07:19;;;;;;;;;;;;;;;23.79;60.72;99171.16;4484577;32;33376;-63
2022/08/23 04:09:47;;;;;;;;;;;;;;;23.65;61.47;99174.91;4478812;32;34016;-62
2022/08/23 04:12:22;;;;;;;;;;;;;;;23.91;60.53;99183.06;4469076;32;34251;-63
2022/08/23 04:14:49;;;;;;;;;;;;;;;23.92;60.70;99187.50;4477990;32;32973;-62
2022/08/23 04:17:17;;;;;;;;;;;;;;;23.78;61.06;99185.00;4482409;32;33434;-62
2022/08/23 04:19:45;;;;;;;;;;;;;;;23.79;60.87;99192.16;4482763;32;33933;-62
2022/08/23 04:22:14;;;;;;;;;;;;;;;23.70;61.25;99183.38;4480631;32;34258;-62
2022/08/23 04:24:41;;;;;;;;;;;;;;;23.53;61.84;99185.69;4483662;32;34378;-62
2022/08/23 04:27:09;;;;;;;;;;;;;;;23.66;61.41;99182.91;4482710;31;31956;-61
2022/08/23 04:29:37;;;;;;;;;;;;;;;23.85;60.89;99181.22;4475971;32;34049;-61
2022/08/23 04:32:06;;;;;;;;;;;;;;;23.63;61.49;99186.06;4475831;31;34420;-61
2022/08/23 04:34:41;;;;;;;;;;;;;;;23.33;62.40;99177.47;4474656;32;34078;-62
2022/08/23 04:37:11;;;;;;;;;;;;;;;23.21;62.79;99188.22;4477236;32;32926;-62
2022/08/23 04:42:27;;;;;;;;;;;;;;;23.64;61.39;99175.97;4476279;32;35481;-61
2022/08/23 04:44:56;;;;;;;;;;;;;;;23.57;61.72;99183.34;4481874;32;34070;-62
2022/08/23 04:47:23;;;;;;;;;;;;;;;23.69;61.21;99182.53;4481613;32;33046;-63
2022/08/23 04:49:51;;;;;;;;;;;;;;;23.62;61.43;99184.38;4475061;32;33087;-63
2022/08/23 04:52:19;;;;;;;;;;;;;;;23.73;61.02;99196.59;4481390;32;32871;-63
2022/08/23 04:54:46;;;;;;;;;;;;;;;23.78;60.99;99195.94;4481883;32;33987;-63
2022/08/23 04:57:15;;;;;;;;;;;;;;;23.26;62.72;99195.75;4479529;32;33396;-63
2022/08/23 04:59:43;;;;;;;;;;;;;;;23.58;61.58;99196.78;4477038;32;32766;-62
2022/08/23 05:02:11;;;;;;;;;;;;;;;23.37;62.40;99205.19;4475057;32;32985;-62
2022/08/23 05:04:38;;;;;;;;;;;;;;;23.36;62.47;99203.53;4475134;32;33527;-62
2022/08/23 05:07:06;;;;;;;;;;;;;;;23.12;63.47;99205.00;4479224;32;33287;-62
2022/08/23 05:09:33;;;;;;;;;;;;;;;23.25;62.89;99210.47;4478260;32;33902;-62
2022/08/23 05:12:00;;;;;;;;;;;;;;;23.24;63.01;99212.38;4478732;32;34352;-64
2022/08/23 05:14:29;;;;;;;;;;;;;;;23.32;62.70;99222.22;4476445;32;35191;-63
2022/08/23 05:16:57;;;;;;;;;;;;;;;23.54;62.09;99211.09;4479998;32;34404;-61
2022/08/23 05:19:24;;;;;;;;;;;;;;;23.82;61.03;99210.84;4479524;32;33891;-62
2022/08/23 05:21:52;;;;;;;;;;;;;;;23.61;61.75;99220.12;4476901;32;34353;-62
2022/08/23 05:24:24;;;;;;;;;;;;;;;23.65;61.67;99224.09;4476832;32;32886;-62
2022/08/23 05:26:52;;;;;;;;;;;;;;;23.80;60.82;99222.00;4479086;32;33253;-62
2022/08/23 05:29:20;;;;;;;;;;;;;;;23.98;60.49;99215.87;4481269;32;33816;-61
2022/08/23 05:31:48;;;;;;;;;;;;;;;23.91;60.77;99229.53;4477887;32;34360;-65
2022/08/23 05:34:16;;;;;;;;;;;;;;;23.83;61.17;99224.31;4478573;32;34112;-64
2022/08/23 05:36:49;;;;;;;;;;;;;;;23.76;61.21;99226.22;4475626;32;32003;-61
2022/08/23 05:39:43;;;;;;;;;;;;;;;23.90;60.71;99227.88;4478729;32;33506;-61
2022/08/23 05:42:30;;;;;;;;;;;;;;;23.85;60.93;99224.97;4481426;32;33031;-61
2022/08/23 05:45:17;;;;;;;;;;;;;;;23.83;61.11;99231.69;4468457;32;34479;-61
2022/08/23 05:48:08;;;;;;;;;;;;;;;23.83;61.10;99242.59;4471787;32;31941;-61
2022/08/23 05:51:08;;;;;;;;;;;;;;;23.98;60.75;99239.63;4473473;32;32524;-61
2022/08/23 05:53:57;;;;;;;;;;;;;;;24.02;60.77;99243.62;4476622;32;32583;-62
2022/08/23 05:56:45;;;;;;;;;;;;;;;23.88;61.18;99248.25;4479436;32;34378;-61
2022/08/23 05:59:33;;;;;;;;;;;;;;;23.83;61.18;99257.09;4473524;32;32116;-61
2022/08/23 06:02:20;;;;;;;;;;;;;;;23.78;61.39;99267.81;4474253;32;33629;-62
2022/08/23 06:05:08;;;;;;;;;;;;;;;23.75;61.62;99260.03;4470803;32;34080;-61
2022/08/23 06:07:55;;;;;;;;;;;;;;;23.91;61.08;99270.53;4471234;32;34546;-61
2022/08/23 06:10:43;;;;;;;;;;;;;;;23.85;61.07;99265.94;4461488;32;34044;-61
2022/08/23 06:13:31;;;;;;;;;;;;;;;23.78;61.60;99267.81;4476227;32;33907;-61
2022/08/23 06:16:20;;;;;;;;;;;;;;;24.00;61.11;99273.88;4481002;32;33831;-61
2022/08/23 06:18:48;;;;;;;;;;;;;;;24.00;61.12;99267.59;4482839;32;34415;-62
2022/08/23 06:21:17;;;;;;;;;;;;;;;24.11;60.71;99275.16;4479939;32;34391;-62
2022/08/23 06:23:46;;;;;;;;;;;;;;;24.10;60.84;99278.91;4484041;32;34340;-61
2022/08/23 06:26:18;;;;;;;;;;;;;;;24.18;60.48;99284.16;4484289;32;32999;-61
2022/08/23 06:28:49;;;;;;;;;;;;;;;24.21;60.28;99285.66;4482828;32;32978;-61
2022/08/23 06:34:04;;;;;;;;;;;;;;;24.25;60.14;99293.19;4483982;32;33927;-62
2022/08/23 06:36:32;;;;;;;;;;;;;;;24.07;61.07;99293.84;4480848;32;34054;-61
2022/08/23 06:39:02;;;;;;;;;;;;;;;24.17;60.68;99297.00;4480479;32;34116;-61
2022/08/23 06:41:31;;;;;;;;;;;;;;;24.33;60.16;99294.84;4483510;32;32460;-61
2022/08/23 06:43:59;;;;;;;;;;;;;;;24.05;60.88;99298.72;4479417;32;34381;-62
2022/08/23 06:46:28;;;;;;;;;;;;;;;24.28;60.37;99298.22;4473536;31;34890;-60
2022/08/23 06:48:58;;;;;;;;;;;;;;;24.20;60.58;99301.19;4481090;32;33593;-62
2022/08/23 06:51:29;;;;;;;;;;;;;;;24.31;60.61;99300.53;4482289;32;34225;-61
2022/08/23 06:53:58;;;;;;;;;;;;;;;24.28;60.46;99295.50;4480002;32;33953;-60
2022/08/23 06:56:31;;;;;;;;;;;;;;;24.30;60.44;99301.59;4474930;32;32541;-61
2022/08/23 06:59:04;;;;;;;;;;;;;;;24.47;60.13;99306.63;4481052;32;34245;-62
2022/08/23 07:01:39;;;;;;;;;;;;;;;24.37;60.63;99307.87;4479423;32;33391;-61
2022/08/23 07:04:16;;;;;;;;;;;;;;;24.45;60.65;99308.72;4477530;32;34131;-62
2022/08/23 07:06:45;;;;;;;;;;;;;;;24.27;61.15;99314.84;4475723;32;34213;-62
2022/08/23 07:09:13;;;;;;;;;;;;;;;24.59;60.09;99316.69;4478270;32;34233;-61
2022/08/23 07:11:41;;;;;;;;;;;;;;;24.63;59.88;99312.47;4482736;32;34160;-61
2022/08/23 07:14:10;;;;;;;;;;;;;;;24.56;60.20;99316.28;4481145;32;34970;-61
2022/08/23 07:16:38;;;;;;;;;;;;;;;24.64;60.01;99316.03;4481718;32;35492;-61
2022/08/23 07:19:07;;;;;;;;;;;;;;;24.69;59.73;99316.22;4478363;32;34396;-61
2022/08/23 07:21:35;;;;;;;;;;;;;;;24.47;60.49;99315.69;4468412;32;32242;-61
2022/08/23 07:24:03;;;;;;;;;;;;;;;24.61;60.27;99327.41;4480940;32;34350;-62
2022/08/23 07:26:31;;;;;;;;;;;;;;;24.73;59.87;99324.84;4482749;32;34413;-62
2022/08/23 07:28:58;;;;;;;;;;;;;;;24.63;60.45;99320.66;4480040;32;34803;-62
2022/08/23 07:31:29;;;;;;;;;;;;;;;24.78;59.95;99320.41;4468179;32;204527;-63
2022/08/23 07:33:58;;;;;;;;;;;;;;;24.62;60.41;99324.47;4477472;32;33867;-62
2022/08/23 07:36:26;;;;;;;;;;;;;;;24.70;60.22;99328.84;4476920;32;35770;-62
2022/08/23 07:38:54;;;;;;;;;;;;;;;24.74;59.67;99319.12;4475581;32;34153;-61
2022/08/23 07:41:22;;;;;;;;;;;;;;;24.92;59.39;99323.09;4480217;32;34602;-61
2022/08/23 07:43:50;;;;;;;;;;;;;;;25.06;58.83;99321.94;4477136;32;34208;-62
2022/08/23 07:46:18;;;;;;;;;;;;;;;24.93;59.19;99328.31;4483551;32;32996;-62
2022/08/23 07:48:47;;;;;;;;;;;;;;;24.84;59.55;99329.63;4480429;32;32917;-62
2022/08/23 07:51:21;;;;;;;;;;;;;;;24.96;59.36;99327.88;4482673;32;33520;-62
2022/08/23 07:53:49;;;;;;;;;;;;;;;25.26;58.42;99330.06;4477076;32;34377;-63
2022/08/23 07:56:17;;;;;;;;;;;;;;;25.06;59.32;99333.72;4479681;32;34243;-61
2022/08/23 07:58:51;;;;;;;;;;;;;;;25.14;58.45;99338.16;4480784;32;34124;-62
2022/08/23 08:01:21;;;;;;;;;;;;;;;24.55;59.97;99341.94;4474183;32;32829;-62
2022/08/23 08:03:51;;;;;;;;;;;;;;;25.17;58.59;99345.94;4475230;32;33989;-62
2022/08/23 08:06:21;;;;;;;;;;;;;;;25.31;57.38;99338.47;4481555;32;34137;-62
2022/08/23 08:08:50;;;;;;;;;;;;;;;25.40;57.10;99337.16;4480331;32;34214;-62
2022/08/23 08:11:19;;;;;;;;;;;;;;;25.38;57.12;99338.44;4469550;32;33521;-62
2022/08/23 08:13:47;;;;;;;;;;;;;;;25.31;57.30;99333.84;4478445;32;34244;-62
2022/08/23 08:16:34;;;;;;;;;;;;;;;25.34;57.33;99335.28;4474162;32;32966;-62
2022/08/23 08:19:02;;;;;;;;;;;;;;;25.40;57.02;99334.41;4471721;32;34112;-62
2022/08/23 08:21:41;;;;;;;;;;;;;;;25.45;56.99;99331.84;4483906;31;32112;-61
2022/08/23 08:24:10;;;;;;;;;;;;;;;25.58;56.89;99333.62;4481463;32;34048;-62
2022/08/23 08:26:38;;;;;;;;;;;;;;;25.74;55.91;99335.00;4475942;32;35083;-62
2022/08/23 08:29:05;;;;;;;;;;;;;;;25.75;56.08;99337.53;4479989;32;34189;-62
2022/08/23 08:31:35;;;;;;;;;;;;;;;25.58;57.15;99341.03;4474189;32;33428;-61
2022/08/23 08:34:02;;;;;;;;;;;;;;;25.69;56.64;99335.69;4480157;32;33846;-62
2022/08/23 08:36:30;;;;;;;;;;;;;;;25.80;56.42;99347.81;4477514;32;34145;-62
2022/08/23 08:38:57;;;;;;;;;;;;;;;25.86;55.17;99354.34;4482177;32;34300;-62
2022/08/23 08:41:37;;;;;;;;;;;;;;;25.82;56.24;99359.44;4481056;32;34427;-62
2022/08/23 08:44:23;;;;;;;;;;;;;;;25.78;55.97;99352.69;4476446;32;34140;-61
2022/08/23 08:46:52;;;;;;;;;;;;;;;25.62;55.16;99356.81;4465635;32;34502;-62
2022/08/23 08:49:27;;;;;;;;;;;;;;;26.08;54.06;99363.84;4467043;32;32881;-61
2022/08/23 08:51:57;;;;;;;;;;;;;;;25.31;56.15;99363.97;4484231;32;32193;-62
2022/08/23 08:54:25;;;;;;;;;;;;;;;25.68;54.53;99357.81;4480975;32;33896;-61
2022/08/23 08:56:55;;;;;;;;;;;;;;;26.01;54.02;99354.84;4468024;32;32702;-61
2022/08/23 08:59:28;;;;;;;;;;;;;;;26.16;53.76;99358.09;4475257;32;32818;-61
2022/08/23 09:01:56;;;;;;;;;;;;;;;26.20;54.09;99359.31;4469255;32;33082;-62
2022/08/23 09:04:25;;;;;;;;;;;;;;;25.94;53.73;99357.66;4466814;32;32701;-62
2022/08/23 09:07:19;;;;;;;;;;;;;;;26.14;53.09;99351.97;4477556;32;32854;-61
2022/08/23 09:10:02;;;;;;;;;;;;;;;26.67;52.09;99367.06;4450490;32;33981;-62
2022/08/23 09:12:36;;;;;;;;;;;;;;;26.70;51.23;99361.97;4468420;32;33987;-62
2022/08/23 09:15:22;;;;;;;;;;;;;;;26.81;50.85;99360.37;4474825;32;34719;-61
2022/08/23 09:17:53;;;;;;;;;;;;;;;27.02;48.83;99359.03;4483005;32;34136;-62
2022/08/23 09:20:24;;;;;;;;;;;;;;;27.16;49.57;99368.84;4479247;32;34325;-62
2022/08/23 09:23:06;;;;;;;;;;;;;;;27.03;49.52;99360.75;4470094;32;34569;-61
2022/08/23 09:25:34;;;;;;;;;;;;;;;27.03;49.06;99365.38;4471311;32;32742;-62
2022/08/23 09:28:03;;;;;;;;;;;;;;;26.85;49.51;99369.00;4483641;32;34144;-61
2022/08/23 09:30:49;;;;;;;;;;;;;;;27.42;47.85;99369.53;4482958;32;35225;-62
2022/08/23 09:33:18;;;;;;;;;;;;;;;27.39;47.07;99370.00;4478621;32;33321;-62
2022/08/23 09:36:03;;;;;;;;;;;;;;;27.30;46.95;99369.47;4478283;32;32413;-61
2022/08/23 09:38:32;;;;;;;;;;;;;;;27.01;48.31;99371.09;4482776;31;33011;-62
2022/08/23 09:41:00;;;;;;;;;;;;;;;27.39;47.04;99372.75;4469683;32;35232;-62
2022/08/23 09:43:27;;;;;;;;;;;;;;;27.23;47.45;99376.97;4485220;32;33175;-61
2022/08/23 09:45:57;;;;;;;;;;;;;;;27.33;47.84;99376.44;4479956;32;35196;-62
2022/08/23 09:48:34;;;;;;;;;;;;;;;27.44;47.46;99369.28;4473209;32;35173;-61
2022/08/23 09:51:04;;;;;;;;;;;;;;;27.46;48.39;99384.47;4475397;32;32898;-62
2022/08/23 09:53:32;;;;;;;;;;;;;;;27.18;48.84;99377.66;4483785;32;33523;-62
2022/08/23 09:56:12;;;;;;;;;;;;;;;27.36;48.62;99371.28;4477649;32;32669;-62
2022/08/23 09:58:42;;;;;;;;;;;;;;;27.26;47.22;99376.53;4482718;32;34471;-62
2022/08/23 10:01:15;;;;;;;;;;;;;;;27.28;47.27;99374.34;4469507;32;34293;-62
2022/08/23 10:03:45;;;;;;;;;;;;;;;27.13;48.55;99371.19;4458847;32;33011;-62
2022/08/23 10:06:16;;;;;;;;;;;;;;;27.11;48.36;99370.56;4468552;32;32824;-61
2022/08/23 10:08:52;;;;;;;;;;;;;;;27.32;47.65;99374.72;4475706;32;35499;-62
2022/08/23 10:11:20;;;;;;;;;;;;;;;27.18;49.92;99360.34;4477813;32;34279;-62
2022/08/23 10:13:48;;;;;;;;;;;;;;;27.23;50.23;99371.50;4467158;32;34297;-63
2022/08/23 10:16:34;;;;;;;;;;;;;;;27.35;50.31;99369.63;4478167;32;34231;-62
2022/08/23 10:19:09;;;;;;;;;;;;;;;27.47;50.98;99368.81;4479981;32;33048;-63
2022/08/23 10:21:37;;;;;;;;;;;;;;;27.81;50.15;99361.78;4481006;32;32867;-62
2022/08/23 10:24:12;;;;;;;;;;;;;;;27.78;49.53;99368.59;4479988;32;34013;-63
2022/08/23 10:26:44;;;;;;;;;;;;;;;27.56;49.85;99376.50;4468512;32;35196;-62
2022/08/23 10:29:37;;;;;;;;;;;;;;;28.08;48.27;99373.16;4481958;32;34059;-62
2022/08/23 10:32:08;;;;;;;;;;;;;;;28.05;47.39;99370.88;4471972;32;33901;-63
2022/08/23 10:34:41;;;;;;;;;;;;;;;27.98;47.62;99367.41;4474519;32;34551;-61
2022/08/23 10:37:40;;;;;;;;;;;;;;;28.13;47.78;99373.28;4475477;32;32733;-63
2022/08/23 10:40:27;;;;;;;;;;;;;;;27.93;47.16;99370.03;4468487;32;33063;-63
2022/08/23 10:42:55;;;;;;;;;;;;;;;27.82;46.78;99369.78;4476812;32;35160;-62
2022/08/23 10:45:23;;;;;;;;;;;;;;;27.79;47.04;99373.00;4465247;32;31709;-62
2022/08/23 10:47:50;;;;;;;;;;;;;;;27.17;47.79;99372.41;4478023;32;35079;-62
2022/08/23 10:50:18;;;;;;;;;;;;;;;27.81;46.62;99370.88;4479844;32;34040;-63
2022/08/23 10:52:57;;;;;;;;;;;;;;;27.91;47.10;99370.28;4469773;32;34465;-63
2022/08/23 10:55:53;;;;;;;;;;;;;;;27.09;49.83;99370.78;4454151;32;31771;-63
2022/08/23 10:58:22;;;;;;;;;;;;;;;27.44;48.96;99372.88;4471153;32;34191;-62
2022/08/23 11:00:50;;;;;;;;;;;;;;;27.81;47.77;99372.78;4477080;32;35442;-63
2022/08/23 11:03:21;;;;;;;;;;;;;;;27.69;48.29;99371.88;4467020;32;33054;-62
2022/08/23 11:06:14;;;;;;;;;;;;;;;27.76;48.03;99369.84;4480770;32;33273;-63
2022/08/23 11:08:45;;;;;;;;;;;;;;;27.95;46.94;99374.22;4477333;31;32879;-62
2022/08/23 11:11:50;;;;;;;;;;;;;;;27.79;46.59;99372.16;4479695;32;34560;-62
2022/08/23 11:14:25;;;;;;;;;;;;;;;27.89;46.58;99372.41;4429058;32;32894;-63
2022/08/23 11:16:58;;;;;;;;;;;;;;;27.81;46.86;99370.03;4466509;32;32735;-62
2022/08/23 11:19:45;;;;;;;;;;;;;;;28.04;46.63;99367.31;4469260;32;34490;-63
2022/08/23 11:22:20;;;;;;;;;;;;;;;28.05;46.55;99368.13;4476762;32;35285;-62
2022/08/23 11:24:49;;;;;;;;;;;;;;;27.75;48.13;99373.69;4473224;31;34120;-62
2022/08/23 11:27:29;;;;;;;;;;;;;;;27.71;47.28;99369.75;4482167;32;33309;-62
2022/08/23 11:29:57;;;;;;;;;;;;;;;27.83;46.97;99365.97;4479127;31;35960;-63
2022/08/23 11:32:32;;;;;;;;;;;;;;;27.87;47.01;99369.09;4481774;32;34114;-63
2022/08/23 11:35:19;;;;;;;;;;;;;;;27.83;46.80;99365.09;4467539;32;34487;-62
2022/08/23 11:37:50;;;;;;;;;;;;;;;27.41;48.36;99371.41;4472349;32;33033;-62
2022/08/23 11:40:37;;;;;;;;;;;;;;;27.22;48.80;99369.78;4475164;31;33935;-63
2022/08/23 11:43:08;;;;;;;;;;;;;;;27.63;47.65;99360.72;4477203;32;34015;-62
2022/08/23 11:45:36;;;;;;;;;;;;;;;27.71;47.64;99361.50;4470513;31;33978;-62
2022/08/23 11:48:12;;;;;;;;;;;;;;;27.58;48.65;99362.53;4477714;31;34567;-63
2022/08/23 11:50:40;;;;;;;;;;;;;;;27.47;49.17;99368.81;4470107;32;33701;-63
2022/08/23 11:53:10;;;;;;;;;;;;;;;27.29;50.82;99370.56;4475694;31;32751;-62
2022/08/23 11:55:59;;;;;;;;;;;;;;;26.94;51.11;99375.84;4472346;32;35686;-63
2022/08/23 11:58:44;;;;;;;;;;;;;;;26.77;51.06;99364.62;4475620;31;32291;-62
2022/08/23 12:01:12;;;;;;;;;;;;;;;27.40;49.38;99377.16;4473418;32;35707;-63
2022/08/23 12:03:42;;;;;;;;;;;;;;;27.62;49.27;99366.47;4474542;31;33112;-64
2022/08/23 12:06:12;;;;;;;;;;;;;;;27.80;48.76;99371.94;4469353;32;33271;-61
2022/08/23 12:08:47;;;;;;;;;;;;;;;27.96;47.72;99369.56;4475477;31;33663;-61
2022/08/23 12:11:16;;;;;;;;;;;;;;;27.79;49.30;99367.50;4474786;32;34882;-62
2022/08/23 12:13:57;;;;;;;;;;;;;;;27.96;48.85;99372.31;4473515;32;34126;-62
2022/08/23 12:16:27;;;;;;;;;;;;;;;27.60;49.10;99372.19;4476102;32;34414;-61
2022/08/23 12:18:56;;;;;;;;;;;;;;;27.82;47.33;99372.53;4479627;31;33547;-61
2022/08/23 12:21:33;;;;;;;;;;;;;;;27.85;48.10;99372.06;4476692;32;34312;-62
2022/08/23 12:24:21;;;;;;;;;;;;;;;27.93;47.44;99370.88;4469653;32;33942;-61
2022/08/23 12:27:07;;;;;;;;;;;;;;;27.90;46.79;99365.00;4479743;32;34193;-62
2022/08/23 12:29:47;;;;;;;;;;;;;;;27.59;47.11;99366.94;4474667;31;33980;-62
2022/08/23 12:32:17;;;;;;;;;;;;;;;28.05;45.62;99368.97;4474284;32;34025;-62
2022/08/23 12:34:47;;;;;;;;;;;;;;;28.26;45.31;99372.22;4466726;31;34311;-61
2022/08/23 12:37:35;;;;;;;;;;;;;;;28.05;46.20;99370.88;4476744;32;34189;-61
2022/08/23 12:40:04;;;;;;;;;;;;;;;28.26;46.69;99363.97;4474422;31;33266;-61
2022/08/23 12:42:36;;;;;;;;;;;;;;;28.17;47.37;99377.25;4469249;32;32535;-61
2022/08/23 12:45:03;;;;;;;;;;;;;;;28.19;47.53;99374.25;4477067;32;35592;-62
2022/08/23 12:47:31;;;;;;;;;;;;;;;27.87;48.65;99366.34;4478483;32;33837;-62
2022/08/23 12:50:00;;;;;;;;;;;;;;;28.07;47.42;99377.84;4479093;32;31896;-62
2022/08/23 12:52:30;;;;;;;;;;;;;;;28.23;47.76;99373.53;4486045;31;34783;-61
2022/08/23 12:54:57;;;;;;;;;;;;;;;28.16;47.47;99381.06;4480528;32;34117;-62
2022/08/23 12:57:35;;;;;;;;;;;;;;;27.55;49.57;99380.31;4476904;32;33671;-62
2022/08/23 13:00:16;;;;;;;;;;;;;;;27.52;50.43;99379.97;4481322;32;31796;-61
2022/08/23 13:02:46;;;;;;;;;;;;;;;27.50;50.92;99382.09;4479489;31;32756;-61
2022/08/23 13:05:33;;;;;;;;;;;;;;;27.35;50.98;99380.62;4471954;32;32576;-61
2022/08/23 13:08:02;;;;;;;;;;;;;;;26.53;53.89;99373.78;4482028;31;32574;-62
2022/08/23 13:10:30;;;;;;;;;;;;;;;26.37;55.00;99375.19;4467115;32;31778;-61
2022/08/23 13:12:57;;;;;;;;;;;;;;;26.36;54.90;99376.25;4481984;32;33989;-62
2022/08/23 13:15:42;;;;;;;;;;;;;;;26.84;53.53;99378.31;4483429;32;34091;-61
2022/08/23 13:18:09;;;;;;;;;;;;;;;26.29;54.78;99373.56;4479094;31;33999;-62
2022/08/23 13:20:37;;;;;;;;;;;;;;;25.68;56.81;99374.25;4480722;32;33519;-61
2022/08/23 13:23:06;;;;;;;;;;;;;;;26.08;55.81;99374.00;4476426;32;33838;-61
2022/08/23 13:25:38;;;;;;;;;;;;;;;26.62;54.50;99384.25;4475433;32;34683;-62
2022/08/23 13:28:27;;;;;;;;;;;;;;;26.38;54.70;99382.34;4481292;32;33902;-62